Time;durP1;ratioP1;P1;durP2;ratioP2;P2;SDS_P1;SDS_P2;PMS_P1;PMS_P2;Temp;Humidity;BMP_temperature;BMP_pressure;BME280_temperature;BME280_humidity;BME280_pressure;Samples;Min_cycle;Max_cycle;Signal;HPM_P1;HPM_P2
2020/12/24 00:00:16;;;;;;;;;;;;;;;6.55;100.00;100203.13;5032412;28;19924;-72
2020/12/24 00:02:43;;;;;;;;;;;;;;;6.54;100.00;100196.06;5029744;28;20004;-72
2020/12/24 00:05:11;;;;;;;;;;;;;;;6.53;100.00;100194.34;5018521;28;19935;-72
2020/12/24 00:07:38;;;;;;;;;;;;;;;6.53;100.00;100197.00;5019466;28;20030;-72
2020/12/24 00:10:05;;;;;;;;;;;;;;;6.53;100.00;100189.03;5040883;28;20688;-72
2020/12/24 00:12:33;;;;;;;;;;;;;;;6.53;100.00;100188.16;5028369;28;19929;-73
2020/12/24 00:15:02;;;;;;;;;;;;;;;6.50;100.00;100190.03;5031352;28;20078;-73
2020/12/24 00:17:30;;;;;;;;;;;;;;;6.48;100.00;100191.88;5033332;28;19979;-72
2020/12/24 00:19:57;;;;;;;;;;;;;;;6.49;100.00;100184.75;5031857;28;19933;-72
2020/12/24 00:22:24;;;;;;;;;;;;;;;6.47;100.00;100186.63;5027491;28;19933;-72
2020/12/24 00:24:51;;;;;;;;;;;;;;;6.47;100.00;100178.66;5028411;28;20039;-72
2020/12/24 00:27:18;;;;;;;;;;;;;;;6.46;100.00;100168.97;5032164;28;19964;-76
2020/12/24 00:29:45;;;;;;;;;;;;;;;6.43;100.00;100161.97;5038584;28;19939;-76
2020/12/24 00:32:13;;;;;;;;;;;;;;;6.43;100.00;100163.75;5041711;28;19929;-77
2020/12/24 00:34:41;;;;;;;;;;;;;;;6.42;100.00;100170.00;5045366;28;20254;-76
2020/12/24 00:37:08;;;;;;;;;;;;;;;6.40;100.00;100170.06;5021719;28;20284;-76
2020/12/24 00:39:35;;;;;;;;;;;;;;;6.40;100.00;100171.88;5033802;28;19933;-77
2020/12/24 00:42:02;;;;;;;;;;;;;;;6.39;100.00;100170.16;5033725;28;19929;-77
2020/12/24 00:44:29;;;;;;;;;;;;;;;6.38;100.00;100174.59;5018620;28;20024;-77
2020/12/24 00:46:56;;;;;;;;;;;;;;;6.36;100.00;100164.97;5039290;28;20298;-77
2020/12/24 00:49:25;;;;;;;;;;;;;;;6.36;100.00;100160.50;5047390;28;19932;-77
2020/12/24 00:51:52;;;;;;;;;;;;;;;6.35;100.00;100168.56;5033775;28;19967;-77
2020/12/24 00:54:19;;;;;;;;;;;;;;;6.35;100.00;100163.25;5044680;28;20429;-77
2020/12/24 00:56:47;;;;;;;;;;;;;;;6.34;100.00;100164.16;5021452;28;19987;-77
2020/12/24 00:59:15;;;;;;;;;;;;;;;6.33;100.00;100159.78;5019878;28;19960;-76
2020/12/24 01:01:42;;;;;;;;;;;;;;;6.32;100.00;100161.56;5017478;28;19928;-77
2020/12/24 01:04:09;;;;;;;;;;;;;;;6.34;100.00;100156.16;5020996;28;20716;-76
2020/12/24 01:06:38;;;;;;;;;;;;;;;6.34;100.00;100156.16;5012737;28;19932;-77
2020/12/24 01:09:05;;;;;;;;;;;;;;;6.34;100.00;100158.84;5019453;28;19932;-76
2020/12/24 01:11:33;;;;;;;;;;;;;;;6.35;100.00;100152.59;5003334;28;20680;-76
2020/12/24 01:14:04;;;;;;;;;;;;;;;6.35;100.00;100152.59;5021674;28;19933;-77
2020/12/24 01:16:31;;;;;;;;;;;;;;;6.34;100.00;100148.19;5020629;28;19932;-76
2020/12/24 01:18:58;;;;;;;;;;;;;;;6.35;100.00;100148.16;5020738;28;20335;-76
2020/12/24 01:21:25;;;;;;;;;;;;;;;6.35;100.00;100141.97;5030937;28;20028;-77
2020/12/24 01:23:54;;;;;;;;;;;;;;;6.34;100.00;100146.41;5017607;28;19940;-76
2020/12/24 01:26:20;;;;;;;;;;;;;;;6.35;100.00;100141.97;5028287;28;20016;-77
2020/12/24 01:28:48;;;;;;;;;;;;;;;6.34;100.00;100140.22;5022313;28;19932;-76
2020/12/24 01:31:15;;;;;;;;;;;;;;;6.34;100.00;100135.75;5009855;28;20342;-77
2020/12/24 01:33:42;;;;;;;;;;;;;;;6.36;100.00;100127.72;5004151;28;20682;-77
2020/12/24 01:36:09;;;;;;;;;;;;;;;6.34;100.00;100130.44;5014222;28;19940;-76
2020/12/24 01:38:39;;;;;;;;;;;;;;;6.34;100.00;100124.25;5021910;28;19933;-77
2020/12/24 01:41:10;;;;;;;;;;;;;;;6.33;100.00;100128.72;5023838;28;20481;-77
2020/12/24 01:43:37;;;;;;;;;;;;;;;6.33;100.00;100119.88;5031381;28;19932;-77
2020/12/24 01:46:05;;;;;;;;;;;;;;;6.33;100.00;100122.53;5003088;28;19925;-76
2020/12/24 01:48:32;;;;;;;;;;;;;;;6.33;100.00;100122.53;5015515;28;20618;-76
2020/12/24 01:51:01;;;;;;;;;;;;;;;6.32;100.00;100115.50;5016417;28;19932;-76
2020/12/24 01:53:30;;;;;;;;;;;;;;;6.32;100.00;100118.16;5019555;28;19935;-77
2020/12/24 01:55:57;;;;;;;;;;;;;;;6.32;100.00;100116.38;5020999;28;20472;-77
2020/12/24 01:58:25;;;;;;;;;;;;;;;6.32;100.00;100113.72;5034907;28;19966;-77
2020/12/24 02:00:52;;;;;;;;;;;;;;;6.33;100.00;100119.88;5034874;28;20351;-77
2020/12/24 02:03:20;;;;;;;;;;;;;;;6.32;100.00;100123.47;5028951;28;20433;-77
2020/12/24 02:05:47;;;;;;;;;;;;;;;6.32;100.00;100120.81;5031756;28;20299;-77
2020/12/24 02:08:15;;;;;;;;;;;;;;;6.31;100.00;100113.75;5019721;28;19932;-78
2020/12/24 02:10:42;;;;;;;;;;;;;;;6.32;100.00;100124.34;5035443;28;20345;-77
2020/12/24 02:13:09;;;;;;;;;;;;;;;6.33;100.00;100125.19;5034997;28;19925;-77
2020/12/24 02:15:37;;;;;;;;;;;;;;;6.30;100.00;100118.22;5034919;28;19994;-77
2020/12/24 02:18:05;;;;;;;;;;;;;;;6.32;100.00;100120.81;5030791;28;20621;-78
2020/12/24 02:20:32;;;;;;;;;;;;;;;6.30;100.00;100122.69;5033499;28;19960;-77
2020/12/24 02:23:00;;;;;;;;;;;;;;;6.31;100.00;100121.72;5034038;28;19960;-77
2020/12/24 02:25:27;;;;;;;;;;;;;;;6.30;100.00;100114.69;5033714;28;19939;-78
2020/12/24 02:27:54;;;;;;;;;;;;;;;6.30;100.00;100112.03;5019704;28;19943;-77
2020/12/24 02:30:21;;;;;;;;;;;;;;;6.30;100.00;100112.91;5030149;28;19963;-78
2020/12/24 02:32:49;;;;;;;;;;;;;;;6.32;100.00;100115.50;5026234;28;19997;-77
2020/12/24 02:35:15;;;;;;;;;;;;;;;6.30;100.00;100104.91;5033133;28;19928;-76
2020/12/24 02:37:42;;;;;;;;;;;;;;;6.31;100.00;100108.44;5033153;28;19956;-74
2020/12/24 02:40:10;;;;;;;;;;;;;;;6.30;100.00;100102.25;5034881;28;20305;-76
2020/12/24 02:42:37;;;;;;;;;;;;;;;6.32;100.00;100103.06;5032950;28;20768;-76
2020/12/24 02:45:05;;;;;;;;;;;;;;;6.30;100.00;100098.75;5030806;28;20304;-75
2020/12/24 02:47:36;;;;;;;;;;;;;;;6.30;100.00;100096.09;5031773;28;20491;-75
2020/12/24 02:50:04;;;;;;;;;;;;;;;6.29;100.00;100075.75;5023916;28;19941;-76
2020/12/24 02:52:31;;;;;;;;;;;;;;;6.29;100.00;100078.41;5034881;28;20704;-75
2020/12/24 02:54:58;;;;;;;;;;;;;;;6.29;100.00;100081.94;5035441;28;19986;-74
2020/12/24 02:57:28;;;;;;;;;;;;;;;6.29;100.00;100089.06;5036336;28;19968;-72
2020/12/24 03:00:08;;;;;;;;;;;;;;;6.28;100.00;100076.69;5032377;28;20032;-73
2020/12/24 03:02:36;;;;;;;;;;;;;;;6.28;100.00;100076.69;5017527;28;19963;-72
2020/12/24 03:05:03;;;;;;;;;;;;;;;6.28;100.00;100076.69;5034957;28;21453;-73
2020/12/24 03:07:30;;;;;;;;;;;;;;;6.27;100.00;100070.50;5015392;28;19950;-73
2020/12/24 03:09:57;;;;;;;;;;;;;;;6.26;100.00;100064.31;5035544;28;20459;-72
2020/12/24 03:12:24;;;;;;;;;;;;;;;6.26;100.00;100069.63;5029023;28;19932;-72
2020/12/24 03:14:52;;;;;;;;;;;;;;;6.26;100.00;100066.13;5027121;28;19944;-72
2020/12/24 03:17:20;;;;;;;;;;;;;;;6.27;100.00;100067.84;5033803;28;19994;-72
2020/12/24 03:19:47;;;;;;;;;;;;;;;6.26;100.00;100066.97;5014341;28;19932;-72
2020/12/24 03:22:14;;;;;;;;;;;;;;;6.26;100.00;100068.78;5036442;28;19929;-73
2020/12/24 03:24:42;;;;;;;;;;;;;;;6.26;100.00;100072.28;5033523;28;19932;-73
2020/12/24 03:27:08;;;;;;;;;;;;;;;6.26;100.00;100074.94;5030516;28;19933;-73
2020/12/24 03:29:36;;;;;;;;;;;;;;;6.25;100.00;100067.91;5015464;28;19982;-73
2020/12/24 03:32:04;;;;;;;;;;;;;;;6.28;100.00;100068.72;5036266;28;20052;-72
2020/12/24 03:34:31;;;;;;;;;;;;;;;6.25;100.00;100067.91;5035693;28;19932;-73
2020/12/24 03:36:58;;;;;;;;;;;;;;;6.26;100.00;100052.81;5031421;28;19936;-73
2020/12/24 03:39:25;;;;;;;;;;;;;;;6.25;100.00;100051.97;5034722;28;20449;-71
2020/12/24 03:41:53;;;;;;;;;;;;;;;6.26;100.00;100047.50;5031245;28;19933;-73
2020/12/24 03:44:20;;;;;;;;;;;;;;;6.25;100.00;100051.97;5033230;28;19932;-73
2020/12/24 03:46:47;;;;;;;;;;;;;;;6.25;100.00;100046.66;5034043;28;19932;-73
2020/12/24 03:49:16;;;;;;;;;;;;;;;6.26;100.00;100042.19;5036559;28;19939;-73
2020/12/24 03:51:43;;;;;;;;;;;;;;;6.25;100.00;100046.66;5037681;28;19943;-73
2020/12/24 03:54:10;;;;;;;;;;;;;;;6.23;100.00;100043.19;5034994;28;19933;-72
2020/12/24 03:56:37;;;;;;;;;;;;;;;6.26;100.00;100045.69;5028967;28;21167;-73
2020/12/24 03:59:04;;;;;;;;;;;;;;;6.26;100.00;100045.69;5034146;28;19928;-73
2020/12/24 04:01:32;;;;;;;;;;;;;;;6.26;100.00;100048.38;5035062;28;19962;-73
2020/12/24 04:03:59;;;;;;;;;;;;;;;6.26;100.00;100048.38;5036773;28;20224;-72
2020/12/24 04:06:30;;;;;;;;;;;;;;;6.26;100.00;100047.50;5023665;28;20931;-72
2020/12/24 04:08:57;;;;;;;;;;;;;;;6.25;100.00;100046.66;5028935;28;20089;-73
2020/12/24 04:11:25;;;;;;;;;;;;;;;6.24;100.00;100044.06;5019720;28;19951;-73
2020/12/24 04:13:54;;;;;;;;;;;;;;;6.25;100.00;100051.09;5033397;28;20344;-74
2020/12/24 04:16:24;;;;;;;;;;;;;;;6.25;100.00;100043.97;5038625;28;19933;-75
2020/12/24 04:18:51;;;;;;;;;;;;;;;6.24;100.00;100038.75;5017468;28;19957;-72
2020/12/24 04:21:20;;;;;;;;;;;;;;;6.25;100.00;100035.16;5034949;28;19933;-73
2020/12/24 04:23:48;;;;;;;;;;;;;;;6.24;100.00;100038.75;5027475;28;19983;-73
2020/12/24 04:26:19;;;;;;;;;;;;;;;6.24;100.00;100038.75;5033423;28;20073;-74
2020/12/24 04:28:46;;;;;;;;;;;;;;;6.24;100.00;100034.28;5017441;28;20023;-72
2020/12/24 04:31:13;;;;;;;;;;;;;;;6.22;100.00;100036.13;5036667;28;20010;-72
2020/12/24 04:33:41;;;;;;;;;;;;;;;6.22;100.00;100028.16;5018739;28;20206;-74
2020/12/24 04:36:08;;;;;;;;;;;;;;;6.22;100.00;100030.81;5018308;28;19960;-73
2020/12/24 04:38:37;;;;;;;;;;;;;;;6.20;100.00;100022.06;5035726;28;19932;-72
2020/12/24 04:41:04;;;;;;;;;;;;;;;6.20;100.00;100022.06;5032062;28;19932;-74
2020/12/24 04:43:37;;;;;;;;;;;;;;;6.21;100.00;100021.13;5035876;28;20780;-73
2020/12/24 04:46:06;;;;;;;;;;;;;;;6.21;100.00;100023.78;5037379;28;20406;-74
2020/12/24 04:48:34;;;;;;;;;;;;;;;6.20;100.00;100015.88;5034172;28;19932;-74
2020/12/24 04:51:17;;;;;;;;;;;;;;;6.19;100.00;100015.00;5032351;28;19950;-72
2020/12/24 04:53:45;;;;;;;;;;;;;;;6.20;100.00;100007.88;5032124;28;19932;-75
2020/12/24 04:56:13;;;;;;;;;;;;;;;6.20;100.00;100005.22;5035022;28;20246;-73
2020/12/24 04:58:42;;;;;;;;;;;;;;;6.19;100.00;100004.38;5040453;28;19932;-72
2020/12/24 05:01:16;;;;;;;;;;;;;;;6.21;100.00;100012.31;5035682;28;19932;-72
2020/12/24 05:03:43;;;;;;;;;;;;;;;6.19;100.00;100000.84;5027534;28;20397;-75
2020/12/24 05:06:15;;;;;;;;;;;;;;;6.19;100.00;100007.03;5029491;28;19940;-74
2020/12/24 05:08:50;;;;;;;;;;;;;;;6.18;100.00;99997.34;5031929;28;19948;-74
2020/12/24 05:11:23;;;;;;;;;;;;;;;6.18;100.00;99997.34;5031199;28;20748;-73
2020/12/24 05:13:53;;;;;;;;;;;;;;;6.17;100.00;99997.41;5027976;28;19933;-73
2020/12/24 05:16:22;;;;;;;;;;;;;;;6.17;100.00;99997.41;5014077;28;19958;-74
2020/12/24 05:18:49;;;;;;;;;;;;;;;6.15;100.00;99992.16;5031080;28;19933;-75
2020/12/24 05:21:36;;;;;;;;;;;;;;;6.14;100.00;99992.25;5029527;28;20031;-74
2020/12/24 05:24:20;;;;;;;;;;;;;;;6.14;100.00;99989.59;5032263;28;20116;-72
2020/12/24 05:26:48;;;;;;;;;;;;;;;6.14;100.00;99989.59;5034274;28;19936;-71
2020/12/24 05:29:15;;;;;;;;;;;;;;;6.13;100.00;99985.19;5023488;28;19935;-72
2020/12/24 05:31:43;;;;;;;;;;;;;;;6.12;100.00;99989.63;5038114;28;20022;-72
2020/12/24 05:34:18;;;;;;;;;;;;;;;6.12;100.00;99981.66;5029858;28;19933;-74
2020/12/24 05:36:45;;;;;;;;;;;;;;;6.12;100.00;99988.78;5032771;28;19955;-73
2020/12/24 05:39:12;;;;;;;;;;;;;;;6.11;100.00;99979.94;5039298;28;20315;-73
2020/12/24 05:41:39;;;;;;;;;;;;;;;6.10;100.00;99977.38;5041340;28;19933;-72
2020/12/24 05:44:09;;;;;;;;;;;;;;;6.10;100.00;99980.88;5024864;28;19928;-73
2020/12/24 05:46:40;;;;;;;;;;;;;;;6.08;100.00;99974.75;5031954;28;20232;-72
2020/12/24 05:49:11;;;;;;;;;;;;;;;6.07;100.00;99978.34;5035030;28;20267;-75
2020/12/24 05:51:57;;;;;;;;;;;;;;;6.05;100.00;99974.88;5035856;28;20791;-73
2020/12/24 05:54:24;;;;;;;;;;;;;;;6.04;100.00;99967.84;5037570;28;20343;-73
2020/12/24 05:56:52;;;;;;;;;;;;;;;6.04;100.00;99970.50;5030492;28;19990;-74
2020/12/24 05:59:24;;;;;;;;;;;;;;;6.04;100.00;99967.84;5026925;28;19932;-73
2020/12/24 06:01:59;;;;;;;;;;;;;;;6.03;100.00;99965.28;5019841;28;19967;-75
2020/12/24 06:04:35;;;;;;;;;;;;;;;6.01;100.00;99968.00;5022498;28;20027;-72
2020/12/24 06:07:07;;;;;;;;;;;;;;;6.02;100.00;99972.38;5020717;28;21003;-74
2020/12/24 06:09:36;;;;;;;;;;;;;;;6.00;100.00;99966.28;5024134;28;19933;-75
2020/12/24 06:12:16;;;;;;;;;;;;;;;6.00;100.00;99966.28;5025416;28;19939;-72
2020/12/24 06:14:47;;;;;;;;;;;;;;;5.99;100.00;99953.94;5016233;28;20071;-72
2020/12/24 06:17:14;;;;;;;;;;;;;;;5.99;100.00;99959.25;4995191;28;19932;-74
2020/12/24 06:19:42;;;;;;;;;;;;;;;5.99;100.00;99956.59;5014098;28;19938;-72
2020/12/24 06:22:14;;;;;;;;;;;;;;;6.00;100.00;99966.28;5019025;28;19933;-73
2020/12/24 06:24:42;;;;;;;;;;;;;;;6.03;100.00;99965.28;5020722;28;20402;-73
2020/12/24 06:27:16;;;;;;;;;;;;;;;6.04;100.00;99962.53;5016929;28;19938;-73
2020/12/24 06:29:46;;;;;;;;;;;;;;;6.06;100.00;99966.00;5010270;28;20233;-72
2020/12/24 06:32:13;;;;;;;;;;;;;;;6.07;100.00;99969.53;5018883;28;20336;-72
2020/12/24 06:34:41;;;;;;;;;;;;;;;6.09;100.00;99965.84;5014424;28;19978;-73
2020/12/24 06:37:12;;;;;;;;;;;;;;;6.11;100.00;99971.97;5011661;28;20639;-73
2020/12/24 06:39:43;;;;;;;;;;;;;;;6.12;100.00;99976.34;5019374;28;19933;-72
2020/12/24 06:42:29;;;;;;;;;;;;;;;6.12;100.00;99963.06;5011231;28;19943;-74
2020/12/24 06:44:57;;;;;;;;;;;;;;;6.14;100.00;99968.31;5014942;28;19932;-73
2020/12/24 06:47:24;;;;;;;;;;;;;;;6.14;100.00;99969.19;5020471;28;19932;-73
2020/12/24 06:49:51;;;;;;;;;;;;;;;6.14;100.00;99969.19;5018110;28;19951;-73
2020/12/24 06:52:31;;;;;;;;;;;;;;;6.15;100.00;99978.88;5013093;28;21050;-74
2020/12/24 06:55:12;;;;;;;;;;;;;;;6.15;100.00;99965.56;5011258;28;19990;-73
2020/12/24 06:57:40;;;;;;;;;;;;;;;6.15;100.00;99970.03;5004416;28;19940;-73
2020/12/24 07:00:19;;;;;;;;;;;;;;;6.15;100.00;99975.34;5006418;28;20461;-74
2020/12/24 07:02:48;;;;;;;;;;;;;;;6.14;100.00;99973.63;5013315;28;19987;-75
2020/12/24 07:05:33;;;;;;;;;;;;;;;6.14;100.00;99981.59;5003702;28;20631;-74
2020/12/24 07:08:00;;;;;;;;;;;;;;;6.13;100.00;99978.09;5018037;28;19933;-72
2020/12/24 07:10:41;;;;;;;;;;;;;;;6.13;100.00;99982.50;5015635;28;20174;-75
2020/12/24 07:13:09;;;;;;;;;;;;;;;6.12;100.00;99981.66;5015236;28;19933;-75
2020/12/24 07:15:43;;;;;;;;;;;;;;;6.11;100.00;99985.25;5022299;28;20449;-75
2020/12/24 07:18:12;;;;;;;;;;;;;;;6.11;100.00;99989.72;5021393;28;19934;-74
2020/12/24 07:20:40;;;;;;;;;;;;;;;6.10;100.00;99983.53;4992412;28;19940;-76
2020/12/24 07:23:09;;;;;;;;;;;;;;;6.10;100.00;99988.00;5020733;28;20737;-74
2020/12/24 07:25:37;;;;;;;;;;;;;;;6.10;100.00;99999.50;5016794;28;19925;-74
2020/12/24 07:28:14;;;;;;;;;;;;;;;6.10;100.00;99994.19;5017897;28;19929;-74
2020/12/24 07:30:41;;;;;;;;;;;;;;;6.10;100.00;99991.50;5029491;28;20447;-74
2020/12/24 07:33:09;;;;;;;;;;;;;;;6.10;100.00;99991.50;5021593;28;19937;-75
2020/12/24 07:35:43;;;;;;;;;;;;;;;6.10;100.00;99991.50;5023384;28;19940;-75
2020/12/24 07:38:10;;;;;;;;;;;;;;;6.10;100.00;99988.84;5022502;28;19928;-74
2020/12/24 07:40:37;;;;;;;;;;;;;;;6.10;100.00;99991.50;5008162;28;20162;-73
2020/12/24 07:43:09;;;;;;;;;;;;;;;6.11;100.00;99987.06;5000722;28;19932;-77
2020/12/24 07:45:36;;;;;;;;;;;;;;;6.12;100.00;99996.75;5019013;28;19996;-75
2020/12/24 07:48:11;;;;;;;;;;;;;;;6.13;100.00;100004.66;5007060;28;19936;-73
2020/12/24 07:50:38;;;;;;;;;;;;;;;6.14;100.00;100005.53;5017861;28;20278;-75
2020/12/24 07:53:17;;;;;;;;;;;;;;;6.15;100.00;99999.28;5002716;28;19932;-73
2020/12/24 07:55:44;;;;;;;;;;;;;;;6.15;100.00;100008.09;5016363;28;20007;-74
2020/12/24 07:58:12;;;;;;;;;;;;;;;6.17;100.00;100006.25;4993382;28;20579;-73
2020/12/24 08:00:41;;;;;;;;;;;;;;;6.18;100.00;100012.44;5013426;28;19968;-75
2020/12/24 08:03:08;;;;;;;;;;;;;;;6.18;100.00;100007.97;4994364;28;19933;-72
2020/12/24 08:05:36;;;;;;;;;;;;;;;6.18;100.00;100015.94;5008506;28;20008;-74
2020/12/24 08:08:04;;;;;;;;;;;;;;;6.20;100.00;100016.75;5009439;28;20284;-72
2020/12/24 08:10:36;;;;;;;;;;;;;;;6.23;100.00;100018.38;5019776;28;20026;-73
2020/12/24 08:13:04;;;;;;;;;;;;;;;6.22;100.00;100025.50;5012105;28;20431;-72
2020/12/24 08:15:33;;;;;;;;;;;;;;;6.23;100.00;100024.56;5011088;28;19929;-72
2020/12/24 08:18:01;;;;;;;;;;;;;;;6.28;100.00;100029.69;5005812;28;19939;-73
2020/12/24 08:20:32;;;;;;;;;;;;;;;6.26;100.00;100032.41;5010525;28;20039;-72
2020/12/24 08:23:04;;;;;;;;;;;;;;;6.28;100.00;100029.69;5002585;28;19933;-72
2020/12/24 08:25:34;;;;;;;;;;;;;;;6.30;100.00;100026.97;5005161;28;19933;-72
2020/12/24 08:28:03;;;;;;;;;;;;;;;6.31;100.00;100031.34;5011106;28;19933;-76
2020/12/24 08:30:50;;;;;;;;;;;;;;;6.31;100.00;100039.31;5009169;28;20453;-74
2020/12/24 08:33:20;;;;;;;;;;;;;;;6.35;100.00;100040.94;5007747;28;20414;-74
2020/12/24 08:35:48;;;;;;;;;;;;;;;6.36;100.00;100040.00;5007733;28;19932;-74
2020/12/24 08:38:18;;;;;;;;;;;;;;;6.42;100.00;100042.34;5014018;28;20691;-74
2020/12/24 08:40:46;;;;;;;;;;;;;;;6.43;100.00;100041.44;5007083;28;19933;-74
2020/12/24 08:43:13;;;;;;;;;;;;;;;6.44;100.00;100048.47;5007728;28;19940;-74
2020/12/24 08:45:44;;;;;;;;;;;;;;;6.48;100.00;100052.72;4999945;28;19933;-74
2020/12/24 08:48:27;;;;;;;;;;;;;;;6.45;100.00;100052.84;4993850;28;20465;-74
2020/12/24 08:50:54;;;;;;;;;;;;;;;6.47;100.00;100056.31;5001701;28;19952;-74
2020/12/24 08:53:28;;;;;;;;;;;;;;;6.45;100.00;100064.34;5006079;28;19979;-74
2020/12/24 08:55:55;;;;;;;;;;;;;;;6.46;100.00;100060.78;5013725;28;20416;-75
2020/12/24 08:58:23;;;;;;;;;;;;;;;6.44;100.00;100061.78;5028255;28;19931;-75
2020/12/24 09:00:50;;;;;;;;;;;;;;;6.47;100.00;100067.81;5011375;28;19933;-74
2020/12/24 09:03:24;;;;;;;;;;;;;;;6.52;100.00;100064.06;5028657;28;20041;-74
2020/12/24 09:05:51;;;;;;;;;;;;;;;6.54;100.00;100075.53;5010904;28;19932;-74
2020/12/24 09:08:29;;;;;;;;;;;;;;;6.53;100.00;100074.66;5013533;28;20295;-74
2020/12/24 09:10:55;;;;;;;;;;;;;;;6.62;100.00;100079.56;5003222;28;19933;-74
2020/12/24 09:13:23;;;;;;;;;;;;;;;6.62;100.00;100081.34;5029036;28;19990;-74
2020/12/24 09:15:53;;;;;;;;;;;;;;;6.69;100.00;100081.00;5029389;28;19940;-74
2020/12/24 09:18:22;;;;;;;;;;;;;;;6.66;100.00;100089.13;5011496;28;20800;-74
2020/12/24 09:20:49;;;;;;;;;;;;;;;6.76;100.00;100094.88;5008002;28;21056;-75
2020/12/24 09:23:16;;;;;;;;;;;;;;;6.78;100.00;100092.16;5013137;28;20021;-74
2020/12/24 09:25:46;;;;;;;;;;;;;;;6.83;100.00;100100.78;5020080;28;20427;-79
2020/12/24 09:28:20;;;;;;;;;;;;;;;6.86;100.00;100100.66;5015170;28;20011;-76
2020/12/24 09:30:47;;;;;;;;;;;;;;;6.86;100.00;100105.97;5019804;28;20024;-80
2020/12/24 09:33:16;;;;;;;;;;;;;;;6.85;100.00;100104.22;5013347;28;19939;-77
2020/12/24 09:35:45;;;;;;;;;;;;;;;6.80;100.00;100115.09;5026132;28;20344;-82
2020/12/24 09:38:13;;;;;;;;;;;;;;;6.84;100.00;100116.69;5017032;28;20016;-82
2020/12/24 09:40:40;;;;;;;;;;;;;;;6.83;100.00;100122.09;5013216;28;19968;-81
2020/12/24 09:43:09;;;;;;;;;;;;;;;6.80;100.00;100122.22;5016149;28;19941;-75
2020/12/24 09:45:37;;;;;;;;;;;;;;;6.83;100.00;100122.94;5014907;28;20413;-79
2020/12/24 09:48:04;;;;;;;;;;;;;;;6.86;100.00;100122.81;5007995;28;19935;-77
2020/12/24 09:50:37;;;;;;;;;;;;;;;6.91;100.00;100125.25;5028275;28;19933;-81
2020/12/24 09:53:05;;;;;;;;;;;;;;;6.91;100.00;100131.44;5012373;28;20717;-81
2020/12/24 09:55:32;;;;;;;;;;;;;;;6.89;100.00;100132.47;5023944;28;20254;-80
2020/12/24 09:57:59;;;;;;;;;;;;;;;6.86;100.00;100132.59;5011596;28;19932;-79
2020/12/24 10:00:32;;;;;;;;;;;;;;;6.91;100.00;100133.22;5015872;28;20006;-77
2020/12/24 10:03:00;;;;;;;;;;;;;;;6.92;100.00;100133.19;5016594;28;20857;-75
2020/12/24 10:05:27;;;;;;;;;;;;;;;6.92;100.00;100138.50;5012969;28;19936;-72
2020/12/24 10:07:57;;;;;;;;;;;;;;;6.90;100.00;100140.34;5024583;28;20655;-72
2020/12/24 10:10:24;;;;;;;;;;;;;;;6.93;100.00;100139.38;5020110;28;20284;-72
2020/12/24 10:12:51;;;;;;;;;;;;;;;6.93;100.00;100140.22;5018968;28;19933;-73
2020/12/24 10:15:18;;;;;;;;;;;;;;;6.91;100.00;100136.75;5014627;28;19933;-74
2020/12/24 10:17:46;;;;;;;;;;;;;;;6.87;100.00;100144.97;5017556;28;19933;-72
2020/12/24 10:20:14;;;;;;;;;;;;;;;6.83;100.00;100149.56;5018250;28;19944;-74
2020/12/24 10:22:41;;;;;;;;;;;;;;;6.88;100.00;100155.53;5017918;28;20136;-74
2020/12/24 10:25:09;;;;;;;;;;;;;;;6.92;100.00;100156.25;5020091;28;19940;-74
2020/12/24 10:27:36;;;;;;;;;;;;;;;6.90;100.00;100153.66;5019740;28;19932;-74
2020/12/24 10:34:04;;;;;;;;;;;;;;;6.88;100.00;100152.00;5175146;22;19943;-80
2020/12/24 10:36:56;;;;;;;;;;;;;;;6.89;100.00;100157.28;5057245;28;20024;-84
2020/12/24 10:39:23;;;;;;;;;;;;;;;6.89;100.00;100167.06;5036978;28;20373;-81
2020/12/24 10:41:51;;;;;;;;;;;;;;;6.98;100.00;100171.94;5046328;28;19955;-77
2020/12/24 10:44:20;;;;;;;;;;;;;;;7.02;100.00;100164.69;5053769;28;20423;-79
2020/12/24 10:46:47;;;;;;;;;;;;;;;7.07;100.00;100157.34;5046006;28;20382;-77
2020/12/24 10:49:38;;;;;;;;;;;;;;;7.11;100.00;100161.63;5035490;28;20366;-79
2020/12/24 10:52:10;;;;;;;;;;;;;;;7.13;100.00;100157.91;5370491;22;20340;-80
2020/12/24 10:54:39;;;;;;;;;;;;;;;7.16;100.00;100162.25;5020295;28;19935;-80
2020/12/24 10:57:08;;;;;;;;;;;;;;;7.23;100.00;100169.88;5036897;28;19929;-78
2020/12/24 10:59:38;;;;;;;;;;;;;;;7.28;100.00;100166.13;5006417;28;19948;-77
2020/12/24 11:02:07;;;;;;;;;;;;;;;7.25;100.00;100166.28;5031360;28;19939;-80
2020/12/24 11:04:43;;;;;;;;;;;;;;;7.25;100.00;100172.50;5013987;28;19978;-80
2020/12/24 11:07:10;;;;;;;;;;;;;;;7.18;100.00;100171.03;5033472;28;19933;-81
2020/12/24 11:09:37;;;;;;;;;;;;;;;7.14;100.00;100164.09;5050881;28;19932;-80
2020/12/24 11:12:05;;;;;;;;;;;;;;;7.12;100.00;100168.66;5005265;28;20004;-81
2020/12/24 11:14:33;;;;;;;;;;;;;;;7.15;100.00;100165.84;5012872;28;19932;-84
2020/12/24 11:17:02;;;;;;;;;;;;;;;7.19;100.00;100162.13;5030783;28;19982;-79
2020/12/24 11:19:48;;;;;;;;;;;;;;;7.15;100.00;100163.19;5027640;28;19933;-83
2020/12/24 11:26:28;;;;;;;;;;;;;;;7.19;100.00;100156.78;5036305;28;19987;-78
2020/12/24 11:29:12;;;;;;;;;;;;;;;7.23;100.00;100153.91;5013389;28;19933;-77
2020/12/24 11:31:40;;;;;;;;;;;;;;;7.32;100.00;100146.41;5038807;28;20190;-79
2020/12/24 11:39:11;;;;;;;;;;;;;;;7.35;100.00;100149.78;5025523;28;19948;-82
2020/12/24 11:42:57;;;;;;;;;;;;;;;;;;;;;
2020/12/24 12:02:00;;;;;;;;;;;;;;;7.72;100.00;100174.69;4972113;28;20386;-85
2020/12/24 12:04:31;;;;;;;;;;;;;;;7.63;100.00;100175.97;4956813;28;20737;-80
2020/12/24 12:07:00;;;;;;;;;;;;;;;7.61;100.00;100177.88;4953301;28;20451;-78
2020/12/24 12:12:40;;;;;;;;;;;;;;;7.52;100.00;100183.63;4945038;28;20259;-80
2020/12/24 12:15:07;;;;;;;;;;;;;;;7.50;100.00;100184.63;4969042;28;20186;-79
2020/12/24 12:17:35;;;;;;;;;;;;;;;7.50;100.00;100180.19;4951379;28;19940;-78
2020/12/24 12:20:04;;;;;;;;;;;;;;;7.58;100.00;100175.34;4975690;28;20345;-79
2020/12/24 12:22:32;;;;;;;;;;;;;;;7.71;100.00;100184.47;4966764;28;20512;-80
2020/12/24 12:24:59;;;;;;;;;;;;;;;7.89;100.00;100173.84;4969483;28;19980;-80
2020/12/24 12:27:28;;;;;;;;;;;;;;;7.99;100.00;100182.25;4955188;28;20738;-79
2020/12/24 12:29:58;;;;;;;;;;;;;;;8.05;100.00;100182.81;4970109;28;19930;-79
2020/12/24 12:32:25;;;;;;;;;;;;;;;8.11;100.00;100185.19;5011762;28;19940;-78
2020/12/24 12:34:52;;;;;;;;;;;;;;;8.17;100.00;100173.34;5009184;28;20051;-77
2020/12/24 12:37:21;;;;;;;;;;;;;;;8.25;100.00;100178.28;5025784;28;19939;-76
2020/12/24 12:39:51;;;;;;;;;;;;;;;8.34;100.00;100181.34;5018106;28;19933;-78
2020/12/24 12:42:18;;;;;;;;;;;;;;;8.40;100.00;100177.53;5015020;28;19960;-76
2020/12/24 12:44:48;;;;;;;;;;;;;;;8.50;100.00;100181.47;5021516;28;20079;-76
2020/12/24 12:47:20;;;;;;;;;;;;;;;8.50;100.00;100176.13;5030212;28;19925;-77
2020/12/24 12:49:48;;;;;;;;;;;;;;;8.51;100.00;100177.88;5017051;28;20048;-76
2020/12/24 12:52:16;;;;;;;;;;;;;;;8.51;100.00;100177.88;5029550;28;19946;-76
2020/12/24 12:54:45;;;;;;;;;;;;;;;8.45;100.00;100179.97;5033845;28;19968;-77
2020/12/24 12:57:15;;;;;;;;;;;;;;;8.41;100.00;100181.94;5034387;28;20293;-77
2020/12/24 12:59:43;;;;;;;;;;;;;;;8.40;100.00;100185.53;5011880;28;20450;-75
2020/12/24 13:02:11;;;;;;;;;;;;;;;8.50;100.00;100181.47;5030940;28;19928;-75
2020/12/24 13:04:39;;;;;;;;;;;;;;;8.52;100.00;100187.59;5029727;28;19943;-78
2020/12/24 13:07:07;;;;;;;;;;;;;;;8.47;100.00;100189.63;5034846;28;19937;-76
2020/12/24 13:09:35;;;;;;;;;;;;;;;8.36;100.00;100200.78;5050006;28;19939;-77
2020/12/24 13:12:03;;;;;;;;;;;;;;;8.35;100.00;100203.56;5027425;28;19937;-74
2020/12/24 13:14:31;;;;;;;;;;;;;;;8.29;100.00;100198.53;5035350;28;19933;-75
2020/12/24 13:16:58;;;;;;;;;;;;;;;8.28;100.00;100207.47;5018133;28;20701;-75
2020/12/24 13:19:25;;;;;;;;;;;;;;;8.24;100.00;100200.56;5023793;28;20054;-76
2020/12/24 13:21:52;;;;;;;;;;;;;;;8.19;100.00;100208.81;5035715;28;19988;-73
2020/12/24 13:24:20;;;;;;;;;;;;;;;8.15;100.00;100218.75;5025989;28;19935;-76